Terminal Aerodrome Forecast
Issued by NWS Upton, NY

Home | Current Version | Previous Version | Text Only | Print | Product List | Glossary On
Versions: 1 2 3 4 5 6 7 8 9 10 11 12 13 14 15 16 17 18 19 20 21 22 23 24
688
FTUS41 KOKX 110833 AAA
TAFBDR
TAF AMD
KBDR 110833Z 1109/1206 29010G18KT P6SM SCT050 BKN080
     FM111400 29016G28KT P6SM BKN050
     FM120200 29012G20KT P6SM FEW040=

USA.gov is the U.S. government's official web portal to all federal, state and local government web resources and services.